Time;durP1;ratioP1;P1;durP2;ratioP2;P2;SDS_P1;SDS_P2;PMS_P1;PMS_P2;Temp;Humidity;BMP_temperature;BMP_pressure;BME280_temperature;BME280_humidity;BME280_pressure;Samples;Min_cycle;Max_cycle;Signal;HPM_P1;HPM_P2
2023/04/01 00:02:04;;;;;;;0.60;0.60;;;;;;;24.54;33.67;98851.59;1877687;76;28091;-41
2023/04/01 00:04:52;;;;;;;0.60;0.50;;;;;;;24.57;33.69;98859.33;1860865;76;28191;-41
2023/04/01 00:07:41;;;;;;;0.50;0.50;;;;;;;24.59;33.69;98864.54;1856308;76;28174;-40
2023/04/01 00:10:30;;;;;;;0.73;0.53;;;;;;;24.61;33.67;98865.94;1872811;76;28195;-40
2023/04/01 00:13:19;;;;;;;0.60;0.60;;;;;;;24.61;33.65;98875.55;1866755;76;31131;-41
2023/04/01 00:16:08;;;;;;;0.50;0.50;;;;;;;24.59;33.68;98879.11;1860744;76;28213;-42
2023/04/01 00:18:57;;;;;;;0.85;0.50;;;;;;;24.59;33.70;98869.50;1867871;76;28115;-41
2023/04/01 00:21:46;;;;;;;0.70;0.70;;;;;;;24.60;33.69;98867.55;1870684;76;28177;-40
2023/04/01 00:24:35;;;;;;;1.07;0.60;;;;;;;24.60;33.68;98869.76;1858827;76;28263;-41
2023/04/01 00:27:23;;;;;;;0.77;0.60;;;;;;;24.61;33.72;98870.59;1859137;76;28137;-40
2023/04/01 00:30:12;;;;;;;0.70;0.70;;;;;;;24.62;33.69;98873.06;1870172;76;28262;-40
2023/04/01 00:33:00;;;;;;;1.20;0.70;;;;;;;24.60;33.73;98875.25;1867531;76;28151;-40
2023/04/01 00:35:49;;;;;;;0.50;0.50;;;;;;;24.61;33.70;98876.92;1863135;76;31019;-41
2023/04/01 00:38:38;;;;;;;0.60;0.60;;;;;;;24.60;33.74;98872.50;1857621;76;38452;-42
2023/04/01 00:41:27;;;;;;;0.42;0.42;;;;;;;24.63;33.72;98874.73;1856517;76;31031;-40
2023/04/01 00:44:19;;;;;;;1.20;0.70;;;;;;;24.64;33.70;98873.63;1856117;76;28213;-41
2023/04/01 00:47:07;;;;;;;1.50;0.50;;;;;;;24.63;33.75;98880.23;1862583;76;28113;-42
2023/04/01 00:49:56;;;;;;;0.67;0.67;;;;;;;24.64;33.74;98875.00;1856457;76;28165;-42
2023/04/01 00:52:44;;;;;;;0.55;0.55;;;;;;;24.65;33.73;98862.94;1856639;76;28091;-42
2023/04/01 00:55:36;;;;;;;0.75;0.75;;;;;;;24.68;33.68;98863.80;1857187;76;28235;-41
2023/04/01 00:58:27;;;;;;;0.62;0.62;;;;;;;24.66;33.72;98861.86;1846042;77;28190;-42
2023/04/01 01:01:16;;;;;;;0.47;0.47;;;;;;;24.67;33.68;98864.87;1851014;76;28227;-41
2023/04/01 01:04:05;;;;;;;1.00;0.80;;;;;;;24.70;33.69;98861.61;1827459;77;28112;-40
2023/04/01 01:06:59;;;;;;;0.47;0.47;;;;;;;24.70;33.70;98853.91;1838145;77;28562;-41
2023/04/01 01:10:14;;;;;;;0.70;0.70;;;;;;;24.71;33.70;98856.95;1814866;75;28164;-42
2023/04/01 01:13:14;;;;;;;0.80;0.70;;;;;;;24.72;33.68;98860.80;1843270;77;28159;-41
2023/04/01 01:16:12;;;;;;;0.55;0.55;;;;;;;24.70;33.72;98862.98;1840696;77;28113;-40
2023/04/01 01:19:09;;;;;;;0.50;0.50;;;;;;;24.71;33.72;98859.70;1862090;76;28072;-42
2023/04/01 01:22:25;;;;;;;0.50;0.50;;;;;;;24.70;33.71;98863.52;1860216;76;28316;-40
2023/04/01 01:25:41;;;;;;;0.95;0.57;;;;;;;24.71;33.71;98864.62;1835529;77;32156;-42
2023/04/01 01:28:44;;;;;;;0.50;0.35;;;;;;;24.70;33.75;98860.77;1857852;76;28291;-40
2023/04/01 01:31:38;;;;;;;0.40;0.40;;;;;;;24.68;33.76;98856.09;1827314;77;28166;-41
2023/04/01 01:34:42;;;;;;;0.60;0.60;;;;;;;24.71;33.77;98851.45;1833957;77;28226;-42
2023/04/01 01:37:32;;;;;;;0.80;0.60;;;;;;;24.72;33.75;98847.06;1841336;76;28254;-40
2023/04/01 01:40:21;;;;;;;0.85;0.40;;;;;;;24.72;33.74;98848.44;1840713;77;31108;-42
2023/04/01 01:43:14;;;;;;;0.60;0.60;;;;;;;24.76;33.72;98857.53;1836043;77;28224;-40
2023/04/01 01:46:05;;;;;;;0.60;0.60;;;;;;;24.79;33.67;98842.73;1835814;77;28104;-41
2023/04/01 01:48:55;;;;;;;0.70;0.55;;;;;;;24.78;33.71;98847.13;1856319;77;28149;-41
2023/04/01 01:51:44;;;;;;;0.80;0.50;;;;;;;24.81;33.68;98843.87;1853034;76;28140;-41
2023/04/01 01:54:33;;;;;;;0.57;0.57;;;;;;;24.80;33.66;98832.05;1872684;76;28123;-41
2023/04/01 01:57:31;;;;;;;0.60;0.60;;;;;;;24.82;33.65;98838.63;1847060;76;28103;-40
2023/04/01 02:00:23;;;;;;;0.55;0.55;;;;;;;24.83;33.64;98838.93;1834074;77;28205;-41
2023/04/01 02:03:14;;;;;;;0.70;0.60;;;;;;;24.84;33.64;98841.94;1840081;77;28154;-40
2023/04/01 02:06:05;;;;;;;0.50;0.50;;;;;;;24.84;33.62;98845.52;1846450;77;28222;-40
2023/04/01 02:08:57;;;;;;;0.60;0.50;;;;;;;24.85;33.65;98837.58;1857724;76;28177;-40
2023/04/01 02:11:48;;;;;;;0.47;0.47;;;;;;;24.87;33.61;98835.39;1843601;77;28068;-42
2023/04/01 02:14:48;;;;;;;0.40;0.40;;;;;;;24.90;33.60;98839.52;1851754;76;28291;-40
2023/04/01 02:17:40;;;;;;;0.70;0.60;;;;;;;24.90;33.59;98838.95;1850322;76;28056;-40
2023/04/01 02:20:30;;;;;;;0.63;0.63;;;;;;;24.90;33.59;98838.95;1848272;77;28742;-40
2023/04/01 02:23:20;;;;;;;1.60;0.40;;;;;;;24.91;33.57;98839.78;1857928;76;28119;-42
2023/04/01 02:26:11;;;;;;;0.53;0.40;;;;;;;24.95;33.56;98845.86;1824620;78;28208;-40
2023/04/01 02:29:02;;;;;;;1.30;0.60;;;;;;;24.96;33.52;98850.28;1839427;77;28066;-40
2023/04/01 02:31:52;;;;;;;0.47;0.47;;;;;;;24.97;33.51;98843.67;1847361;77;28786;-40
2023/04/01 02:34:41;;;;;;;1.30;0.53;;;;;;;24.96;33.52;98838.45;1840852;76;28188;-40
2023/04/01 02:37:30;;;;;;;1.50;0.50;;;;;;;25.00;33.51;98838.19;1849048;76;28200;-40
2023/04/01 02:40:19;;;;;;;0.50;0.50;;;;;;;24.98;33.47;98833.52;1850753;76;28162;-40
2023/04/01 02:43:07;;;;;;;0.87;0.37;;;;;;;25.02;33.47;98823.66;1860161;76;28186;-40
2023/04/01 02:45:55;;;;;;;0.50;0.50;;;;;;;25.04;33.47;98817.35;1828174;77;28214;-41
2023/04/01 02:48:44;;;;;;;0.50;0.50;;;;;;;25.05;33.42;98823.11;1838734;77;28296;-40
2023/04/01 02:51:34;;;;;;;0.60;0.60;;;;;;;25.08;33.36;98833.58;1837055;77;28237;-40
2023/04/01 02:54:22;;;;;;;0.40;0.40;;;;;;;25.10;33.36;98832.76;1858173;76;28188;-40
2023/04/01 02:57:10;;;;;;;0.68;0.68;;;;;;;25.10;33.34;98832.76;1846343;77;28095;-42
2023/04/01 02:59:59;;;;;;;0.60;0.60;;;;;;;25.02;33.38;98817.59;1842418;77;28069;-42
2023/04/01 03:02:47;;;;;;;0.65;0.65;;;;;;;25.11;33.35;98828.94;1837025;77;28165;-42
2023/04/01 03:05:36;;;;;;;0.40;0.40;;;;;;;25.12;33.36;98826.45;1857826;76;37462;-40
2023/04/01 03:08:25;;;;;;;0.55;0.55;;;;;;;25.15;33.33;98830.88;1857715;76;29013;-40
2023/04/01 03:11:14;;;;;;;0.53;0.53;;;;;;;25.15;33.34;98835.54;1853260;76;28185;-41
2023/04/01 03:14:03;;;;;;;1.50;0.35;;;;;;;25.14;33.48;98829.20;1847797;74;28293;-41
2023/04/01 03:16:51;;;;;;;0.35;0.35;;;;;;;25.15;33.59;98832.79;1862452;76;28167;-40
2023/04/01 03:19:40;;;;;;;0.68;0.68;;;;;;;25.13;33.56;98827.58;1848813;76;28185;-41
2023/04/01 03:22:28;;;;;;;2.00;0.50;;;;;;;25.18;33.65;98826.77;1850936;76;28105;-40
2023/04/01 03:25:16;;;;;;;0.80;0.62;;;;;;;25.18;33.65;98826.77;1860352;76;28196;-40
2023/04/01 03:28:05;;;;;;;0.70;0.50;;;;;;;25.15;33.81;98817.13;1857684;76;28144;-40
2023/04/01 03:30:53;;;;;;;0.40;0.40;;;;;;;25.16;33.81;98806.40;1855130;76;28108;-42
2023/04/01 03:33:42;;;;;;;3.30;0.60;;;;;;;25.19;33.79;98802.30;1837303;77;28169;-42
2023/04/01 03:36:31;;;;;;;1.20;0.70;;;;;;;25.18;33.80;98803.41;1858008;76;28327;-40
2023/04/01 03:39:19;;;;;;;0.60;0.60;;;;;;;25.20;33.78;98801.21;1858180;76;28291;-41
2023/04/01 03:42:07;;;;;;;0.80;0.60;;;;;;;25.18;33.79;98804.78;1853924;76;28166;-40
2023/04/01 03:44:56;;;;;;;1.37;0.62;;;;;;;25.21;33.78;98805.59;1848182;76;28274;-41
2023/04/01 03:47:45;;;;;;;0.62;0.62;;;;;;;25.21;33.77;98791.31;1844978;76;28226;-41
2023/04/01 03:50:35;;;;;;;1.22;0.50;;;;;;;25.23;33.74;98793.78;1825145;76;28242;-40
2023/04/01 03:53:24;;;;;;;1.45;0.78;;;;;;;25.23;33.72;98790.49;1868205;76;28186;-41
2023/04/01 03:56:13;;;;;;;0.90;0.60;;;;;;;25.27;33.67;98790.80;1847528;76;28126;-40
2023/04/01 03:59:07;;;;;;;1.20;0.73;;;;;;;25.26;33.69;98777.59;1842619;76;28241;-40
2023/04/01 04:01:55;;;;;;;0.93;0.50;;;;;;;25.26;33.71;98776.22;1857767;76;28099;-40
2023/04/01 04:04:46;;;;;;;1.30;0.55;;;;;;;25.27;33.73;98782.55;1859790;76;28075;-40
2023/04/01 04:07:36;;;;;;;0.80;0.57;;;;;;;25.28;33.68;98781.44;1856232;76;28078;-40
2023/04/01 04:10:25;;;;;;;0.72;0.72;;;;;;;25.28;33.74;98782.27;1856357;76;28145;-40
2023/04/01 04:13:14;;;;;;;2.75;0.70;;;;;;;25.28;33.73;98791.89;1869855;76;28087;-41
2023/04/01 04:16:05;;;;;;;0.43;0.43;;;;;;;25.31;33.69;98785.03;1876636;76;28092;-40
2023/04/01 04:18:56;;;;;;;0.80;0.70;;;;;;;25.32;33.64;98782.58;1846412;76;28192;-42
2023/04/01 04:21:44;;;;;;;0.78;0.50;;;;;;;25.32;33.71;98790.82;1867255;76;28154;-41
2023/04/01 04:24:34;;;;;;;0.50;0.37;;;;;;;25.30;33.69;98789.69;1865501;76;28213;-40
2023/04/01 04:27:24;;;;;;;1.50;0.47;;;;;;;25.32;33.72;98793.57;1863576;76;28141;-40
2023/04/01 04:30:17;;;;;;;0.50;0.50;;;;;;;25.32;33.69;98799.06;1867566;76;28264;-40
2023/04/01 04:33:06;;;;;;;0.57;0.57;;;;;;;25.32;33.70;98800.44;1871083;76;28095;-40
2023/04/01 04:35:57;;;;;;;0.90;0.60;;;;;;;25.32;33.71;98802.62;1858288;76;28792;-40
2023/04/01 04:38:46;;;;;;;0.98;0.70;;;;;;;25.35;33.69;98799.88;1860245;76;28103;-41
2023/04/01 04:41:38;;;;;;;0.60;0.60;;;;;;;25.35;33.67;98785.59;1869145;76;28224;-40
2023/04/01 04:44:27;;;;;;;0.50;0.42;;;;;;;25.35;33.72;98787.51;1845561;76;28214;-40
2023/04/01 04:47:16;;;;;;;0.50;0.50;;;;;;;25.35;33.63;98790.26;1877887;76;28068;-40
2023/04/01 04:50:06;;;;;;;0.80;0.60;;;;;;;25.37;33.66;98792.19;1859522;76;28986;-41
2023/04/01 04:52:54;;;;;;;0.60;0.60;;;;;;;25.38;33.68;98804.85;1847912;76;28175;-40
2023/04/01 04:55:50;;;;;;;0.37;0.37;;;;;;;25.38;33.65;98813.10;1847564;76;28179;-40
2023/04/01 04:58:41;;;;;;;1.52;0.45;;;;;;;25.38;33.67;98810.35;1857529;76;28142;-40
2023/04/01 05:01:30;;;;;;;0.62;0.40;;;;;;;25.38;33.68;98802.94;1845981;77;28212;-40
2023/04/01 05:04:19;;;;;;;0.42;0.42;;;;;;;25.39;33.70;98806.52;1871630;76;28077;-41
2023/04/01 05:07:07;;;;;;;0.40;0.40;;;;;;;25.39;33.66;98794.95;1831598;77;28232;-40
2023/04/01 05:09:56;;;;;;;0.40;0.37;;;;;;;25.39;33.67;98792.77;1855730;76;28186;-40
2023/04/01 05:12:45;;;;;;;4.10;0.90;;;;;;;25.38;33.68;98787.81;1825936;78;28170;-40
2023/04/01 05:15:35;;;;;;;1.60;0.47;;;;;;;25.44;33.64;98790.05;1846339;77;28266;-42
2023/04/01 05:18:24;;;;;;;0.50;0.50;;;;;;;25.44;33.61;98784.55;1827577;77;28274;-42
2023/04/01 05:21:15;;;;;;;0.33;0.33;;;;;;;25.42;33.63;98788.09;1837770;77;28158;-40
2023/04/01 05:24:04;;;;;;;1.00;0.50;;;;;;;25.42;33.64;98786.71;1839136;77;28121;-40
2023/04/01 05:26:53;;;;;;;0.95;0.60;;;;;;;25.41;33.64;98790.58;1835623;77;38517;-40
2023/04/01 05:29:41;;;;;;;1.57;0.55;;;;;;;25.43;33.65;98791.67;1835887;77;28170;-39
2023/04/01 05:32:32;;;;;;;2.40;0.60;;;;;;;25.44;33.62;98793.37;1845533;77;30238;-40
2023/04/01 05:35:21;;;;;;;0.90;0.40;;;;;;;25.43;33.63;98800.75;1844236;75;28983;-40
2023/04/01 05:38:10;;;;;;;0.42;0.42;;;;;;;25.43;33.62;98800.75;1842490;76;28164;-40
2023/04/01 05:41:03;;;;;;;1.50;0.60;;;;;;;25.41;33.64;98804.33;1795596;78;28274;-41
2023/04/01 05:43:52;;;;;;;0.60;0.50;;;;;;;25.44;33.61;98796.11;1797497;78;28357;-40
2023/04/01 05:46:51;;;;;;;1.42;0.42;;;;;;;25.42;33.65;98803.20;1840675;77;28170;-41
2023/04/01 05:49:41;;;;;;;1.70;0.65;;;;;;;25.43;33.65;98805.42;1836070;77;31451;-41
2023/04/01 05:52:29;;;;;;;0.30;0.30;;;;;;;25.44;33.64;98817.54;1835884;77;28263;-41
2023/04/01 05:55:18;;;;;;;0.60;0.60;;;;;;;25.43;33.62;98825.50;1836756;77;28199;-41
2023/04/01 05:58:07;;;;;;;0.30;0.30;;;;;;;25.45;33.59;98830.20;1851692;76;28143;-41
2023/04/01 06:00:59;;;;;;;1.77;0.40;;;;;;;25.45;33.63;98823.88;1847390;76;28218;-40
2023/04/01 06:03:47;;;;;;;1.60;0.50;;;;;;;25.46;33.58;98825.00;1835518;77;28252;-41
2023/04/01 06:06:37;;;;;;;0.65;0.50;;;;;;;25.44;33.62;98830.48;1861389;75;28352;-40
2023/04/01 06:09:30;;;;;;;0.70;0.40;;;;;;;25.47;33.62;98840.92;1864876;75;28153;-40
2023/04/01 06:12:41;;;;;;;1.90;0.70;;;;;;;25.47;33.58;98832.67;1862481;75;28098;-40
2023/04/01 06:15:33;;;;;;;1.15;0.55;;;;;;;25.47;33.67;98833.52;1818220;76;28162;-40
2023/04/01 06:18:36;;;;;;;0.90;0.50;;;;;;;25.47;33.74;98845.89;1876872;75;28125;-41
2023/04/01 06:21:57;;;;;;;2.65;0.50;;;;;;;25.46;33.76;98853.88;1800105;78;28263;-41
2023/04/01 06:24:54;;;;;;;0.42;0.42;;;;;;;25.46;33.79;98858.54;1798442;79;28336;-40
2023/04/01 06:28:14;;;;;;;1.45;0.40;;;;;;;25.42;33.84;98858.20;1799711;79;28422;-40
2023/04/01 06:31:35;;;;;;;0.68;0.50;;;;;;;25.43;33.84;98859.03;1813220;78;28278;-41
2023/04/01 06:34:40;;;;;;;0.30;0.30;;;;;;;25.40;33.91;98864.52;1796311;78;28303;-40
2023/04/01 06:37:32;;;;;;;1.82;0.50;;;;;;;25.40;33.92;98865.36;1826658;78;28551;-42
2023/04/01 06:40:33;;;;;;;0.60;0.40;;;;;;;25.43;33.88;98862.62;1814838;78;28339;-41
2023/04/01 06:43:39;;;;;;;0.30;0.30;;;;;;;25.43;33.86;98865.37;1807875;78;28254;-41
2023/04/01 06:46:35;;;;;;;0.47;0.47;;;;;;;25.44;33.86;98856.03;1783068;78;28278;-41
2023/04/01 06:49:50;;;;;;;0.50;0.50;;;;;;;25.43;33.89;98858.50;1821428;78;28358;-40
2023/04/01 06:53:22;;;;;;;0.40;0.40;;;;;;;25.43;33.89;98872.24;1820590;78;28368;-41
2023/04/01 06:56:30;;;;;;;0.40;0.40;;;;;;;25.43;33.90;98873.62;1800289;78;28314;-41
2023/04/01 06:59:29;;;;;;;0.33;0.33;;;;;;;25.41;33.92;98867.56;1802507;78;28284;-40
2023/04/01 07:02:23;;;;;;;0.50;0.42;;;;;;;25.46;33.93;98870.91;1824154;78;28291;-41
2023/04/01 07:05:14;;;;;;;1.50;0.50;;;;;;;25.47;33.61;98878.88;1875033;75;28107;-41
2023/04/01 07:08:06;;;;;;;0.53;0.53;;;;;;;25.50;33.30;98882.48;1880076;74;28259;-41
2023/04/01 07:10:58;;;;;;;3.50;0.50;;;;;;;25.49;33.11;98882.19;1828652;77;28325;-43
2023/04/01 07:14:02;;;;;;;2.25;0.50;;;;;;;25.49;32.96;98884.11;1818704;77;28219;-41
2023/04/01 07:16:55;;;;;;;0.70;0.70;;;;;;;25.46;32.74;98884.66;1804270;78;28639;-42
2023/04/01 07:19:48;;;;;;;0.45;0.45;;;;;;;25.45;32.78;98893.45;1804473;78;28406;-43
2023/04/01 07:22:48;;;;;;;0.70;0.60;;;;;;;25.44;32.88;98886.86;1808976;78;30209;-41
2023/04/01 07:25:50;;;;;;;0.47;0.47;;;;;;;25.44;33.02;98885.48;1807460;78;28235;-41
2023/04/01 07:28:40;;;;;;;0.50;0.50;;;;;;;25.41;33.15;98885.44;1795725;78;28254;-43
2023/04/01 07:31:42;;;;;;;0.70;0.30;;;;;;;25.40;33.23;98882.39;1804445;78;28398;-43
2023/04/01 07:34:37;;;;;;;0.50;0.50;;;;;;;25.40;33.28;98880.48;1802324;78;28498;-43
2023/04/01 07:37:37;;;;;;;1.05;0.47;;;;;;;25.43;33.29;98887.91;1805068;78;28372;-43
2023/04/01 07:41:03;;;;;;;0.37;0.37;;;;;;;25.41;33.33;98890.36;1809351;78;28279;-42
2023/04/01 07:43:59;;;;;;;0.60;0.50;;;;;;;25.40;33.36;98882.39;1803318;78;28876;-43
2023/04/01 07:47:06;;;;;;;0.20;0.20;;;;;;;25.41;33.44;98879.94;1802878;78;28270;-41
2023/04/01 07:50:03;;;;;;;0.70;0.40;;;;;;;25.40;33.47;98881.85;1802033;78;28269;-41
2023/04/01 07:53:09;;;;;;;0.68;0.47;;;;;;;25.33;33.45;98867.52;1799712;78;28337;-41
2023/04/01 07:56:10;;;;;;;0.40;0.40;;;;;;;25.41;33.96;98878.56;1819013;78;30348;-41
2023/04/01 07:59:03;;;;;;;1.60;0.50;;;;;;;25.43;33.77;98876.37;1824401;78;28274;-41
2023/04/01 08:02:16;;;;;;;0.90;0.60;;;;;;;25.40;33.92;98872.77;1808767;78;28562;-42
2023/04/01 08:05:32;;;;;;;0.50;0.50;;;;;;;25.44;33.98;98873.91;1819379;78;28256;-42
2023/04/01 08:08:27;;;;;;;1.62;0.40;;;;;;;25.42;34.29;98877.45;1815039;78;28804;-41
2023/04/01 08:11:53;;;;;;;2.00;0.53;;;;;;;25.38;34.40;98884.05;1802852;79;28210;-45
2023/04/01 08:15:23;;;;;;;0.57;0.47;;;;;;;25.42;34.81;98896.70;1872510;75;28197;-42
2023/04/01 08:18:42;;;;;;;0.60;0.60;;;;;;;25.39;35.29;98902.18;1852090;76;28114;-41
2023/04/01 08:21:40;;;;;;;0.80;0.70;;;;;;;25.40;35.25;98909.35;1846234;76;28189;-41
2023/04/01 08:24:47;;;;;;;0.50;0.50;;;;;;;25.39;35.37;98919.25;1855112;76;28147;-41
2023/04/01 08:27:49;;;;;;;1.00;0.70;;;;;;;25.40;35.50;98921.72;1854600;76;28593;-42
2023/04/01 08:30:43;;;;;;;1.00;0.90;;;;;;;25.41;35.58;98924.73;1836988;77;28232;-43
2023/04/01 08:33:34;;;;;;;2.30;0.60;;;;;;;25.43;35.63;98932.73;1858387;76;28710;-42
2023/04/01 08:36:36;;;;;;;0.70;0.65;;;;;;;25.44;35.63;98925.36;1860389;76;28294;-41
2023/04/01 08:39:35;;;;;;;1.27;0.82;;;;;;;25.45;35.67;98925.08;1846348;76;28331;-41
2023/04/01 08:42:32;;;;;;;1.15;0.70;;;;;;;25.45;35.66;98918.74;1864419;76;28200;-41
2023/04/01 08:45:44;;;;;;;2.62;0.50;;;;;;;25.46;35.69;98919.88;1853786;76;28130;-41
2023/04/01 08:49:07;;;;;;;0.30;0.30;;;;;;;25.42;35.75;98921.45;1852488;76;28090;-41
2023/04/01 08:52:33;;;;;;;0.80;0.70;;;;;;;25.43;35.80;98918.16;1797470;78;28229;-43
2023/04/01 08:55:37;;;;;;;0.50;0.50;;;;;;;25.42;35.61;98903.57;1864796;76;28084;-42
2023/04/01 08:58:45;;;;;;;0.80;0.80;;;;;;;25.36;35.75;98911.53;1811760;75;28209;-41
2023/04/01 09:01:49;;;;;;;0.72;0.70;;;;;;;25.38;35.83;98907.96;1829133;75;28173;-42
2023/04/01 09:04:51;;;;;;;3.40;0.90;;;;;;;25.38;35.87;98904.67;1774429;79;28445;-42
2023/04/01 09:08:08;;;;;;;0.67;0.60;;;;;;;25.39;35.84;98893.94;1801798;77;28251;-43
2023/04/01 09:11:10;;;;;;;2.80;0.80;;;;;;;25.41;35.88;98893.11;1848513;76;28163;-42
2023/04/01 09:14:33;;;;;;;0.75;0.60;;;;;;;25.42;35.88;98896.70;1856419;76;28237;-41
2023/04/01 09:17:52;;;;;;;0.80;0.80;;;;;;;25.43;35.86;98892.87;1857176;76;28482;-40
2023/04/01 09:21:01;;;;;;;2.40;0.80;;;;;;;25.44;35.90;98897.28;1836532;77;28348;-43
2023/04/01 09:23:55;;;;;;;1.05;0.70;;;;;;;25.43;35.90;98890.12;1846797;76;28226;-41
2023/04/01 09:27:07;;;;;;;1.30;0.87;;;;;;;25.43;35.96;98892.03;1862621;76;28419;-41
2023/04/01 09:30:09;;;;;;;0.72;0.72;;;;;;;25.45;35.88;98885.20;1841218;76;28224;-42
2023/04/01 09:33:03;;;;;;;1.15;1.05;;;;;;;25.46;35.86;98880.00;1847717;76;28336;-51
2023/04/01 09:36:22;;;;;;;1.07;1.00;;;;;;;25.46;36.00;98873.13;1849393;76;28239;-42
2023/04/01 09:39:33;;;;;;;1.05;0.80;;;;;;;25.51;35.99;98874.49;1830527;77;28240;-41
2023/04/01 09:42:44;;;;;;;1.60;1.00;;;;;;;25.48;36.11;98865.42;1852959;76;28288;-45
2023/04/01 09:45:45;;;;;;;1.37;1.00;;;;;;;25.51;36.29;98871.74;1841862;76;28265;-44
2023/04/01 09:48:52;;;;;;;1.10;1.00;;;;;;;25.52;36.39;98869.28;1852244;76;28107;-42
2023/04/01 09:51:45;;;;;;;0.98;0.98;;;;;;;25.55;36.32;98870.13;1770809;76;28267;-44
2023/04/01 09:54:52;;;;;;;1.00;0.70;;;;;;;25.55;36.29;98872.05;1838457;76;28272;-42
2023/04/01 09:58:01;;;;;;;1.10;1.00;;;;;;;25.53;36.32;98861.33;1838997;77;28281;-44
2023/04/01 10:01:12;;;;;;;1.13;1.03;;;;;;;25.54;36.31;98867.63;1848916;76;28276;-42
2023/04/01 10:04:19;;;;;;;1.07;1.07;;;;;;;25.51;36.37;98866.24;1867436;76;28277;-45
2023/04/01 10:07:40;;;;;;;1.90;1.25;;;;;;;25.52;36.39;98865.70;1866815;76;28150;-42
2023/04/01 10:10:35;;;;;;;2.12;1.40;;;;;;;25.51;36.40;98859.37;1858590;76;28389;-43
2023/04/01 10:13:33;;;;;;;1.37;1.25;;;;;;;25.50;36.42;98854.14;1838011;76;28200;-44
2023/04/01 10:16:40;;;;;;;1.72;1.20;;;;;;;25.52;36.43;98844.53;1868147;76;28167;-43
2023/04/01 10:20:03;;;;;;;2.03;1.67;;;;;;;25.53;36.38;98850.33;1853858;76;28627;-43
2023/04/01 10:23:04;;;;;;;1.40;1.30;;;;;;;25.51;36.39;98843.44;1855231;76;28153;-44
2023/04/01 10:26:26;;;;;;;1.60;1.50;;;;;;;25.49;36.48;98836.81;1852855;76;28144;-45
2023/04/01 10:29:37;;;;;;;2.77;1.43;;;;;;;25.49;36.50;98835.98;1854605;76;28197;-45
2023/04/01 10:32:55;;;;;;;1.32;1.25;;;;;;;25.47;36.45;98827.18;1853192;76;28154;-44
2023/04/01 10:36:11;;;;;;;1.87;1.72;;;;;;;25.48;36.42;98826.93;1837004;77;28231;-46
2023/04/01 10:39:09;;;;;;;1.20;1.10;;;;;;;25.48;36.45;98828.30;1854309;76;28225;-44
2023/04/01 10:42:17;;;;;;;1.82;1.20;;;;;;;25.46;36.44;98827.75;1840483;76;28098;-53
2023/04/01 10:45:51;;;;;;;1.42;1.30;;;;;;;25.49;36.43;98828.56;1836930;77;28225;-44
2023/04/01 10:48:46;;;;;;;1.60;1.50;;;;;;;25.49;36.45;98827.19;1853763;76;28568;-45
2023/04/01 10:51:49;;;;;;;2.08;1.40;;;;;;;25.48;36.50;98824.18;1848836;76;28150;-42
2023/04/01 10:54:58;;;;;;;1.82;1.40;;;;;;;25.52;36.42;98821.16;1846847;76;28166;-42
2023/04/01 10:58:14;;;;;;;1.77;1.67;;;;;;;25.52;36.62;98815.66;1867907;76;28128;-46
2023/04/01 11:01:26;;;;;;;1.70;1.60;;;;;;;25.53;37.15;98806.33;1833242;77;28225;-43
2023/04/01 11:04:47;;;;;;;2.27;1.67;;;;;;;25.53;37.17;98801.37;1815364;76;28185;-46
2023/04/01 11:07:59;;;;;;;1.67;1.50;;;;;;;25.59;37.08;98794.23;1841239;76;28296;-42
2023/04/01 11:11:21;;;;;;;2.45;1.52;;;;;;;25.57;36.98;98797.80;1880161;75;28180;-46
2023/04/01 11:14:36;;;;;;;1.87;1.77;;;;;;;25.62;37.21;98790.95;1862600;75;28150;-44
2023/04/01 11:17:49;;;;;;;3.65;1.60;;;;;;;25.62;37.47;98791.48;1863141;75;28117;-44
2023/04/01 11:20:57;;;;;;;3.45;1.30;;;;;;;25.62;37.30;98794.23;1851775;77;28204;-50
2023/04/01 11:24:09;;;;;;;3.27;1.50;;;;;;;25.65;37.33;98800.00;1873371;75;28219;-44
2023/04/01 11:27:15;;;;;;;2.02;1.40;;;;;;;25.63;37.46;98793.95;1873205;75;28232;-44
2023/04/01 11:30:19;;;;;;;3.27;1.40;;;;;;;25.66;37.43;98803.05;1881295;75;28151;-45
2023/04/01 11:33:22;;;;;;;1.62;1.52;;;;;;;25.68;37.47;98799.47;1816828;75;28155;-44
2023/04/01 11:36:27;;;;;;;1.70;1.60;;;;;;;25.70;37.52;98797.81;1862226;75;28242;-49
2023/04/01 11:39:42;;;;;;;2.50;1.35;;;;;;;25.69;37.59;98797.02;1862674;75;28236;-45
2023/04/01 11:42:43;;;;;;;1.70;1.60;;;;;;;25.71;37.53;98793.44;1882649;75;28222;-43
2023/04/01 11:46:12;;;;;;;2.50;1.27;;;;;;;25.68;37.82;98791.22;1750607;78;28460;-41
2023/04/01 11:49:26;;;;;;;1.92;1.40;;;;;;;25.71;37.69;98785.19;1814046;78;28388;-42
2023/04/01 11:52:29;;;;;;;1.80;1.30;;;;;;;25.70;37.73;98783.52;1814182;78;28393;-43
2023/04/01 11:55:38;;;;;;;1.82;1.72;;;;;;;25.69;37.78;98769.51;1774756;78;28255;-41
2023/04/01 11:58:52;;;;;;;1.80;1.57;;;;;;;25.73;37.92;98771.98;1805381;78;28343;-41
2023/04/01 12:02:02;;;;;;;2.10;1.30;;;;;;;25.78;37.99;98766.49;1825412;78;28274;-42
2023/04/01 12:05:16;;;;;;;1.57;1.47;;;;;;;25.80;37.81;98760.16;1810316;78;28361;-42
2023/04/01 12:08:24;;;;;;;2.60;1.70;;;;;;;25.81;37.81;98752.17;1806342;78;28314;-42
2023/04/01 12:11:18;;;;;;;1.40;1.30;;;;;;;25.82;37.75;98742.83;1784181;78;28351;-42
2023/04/01 12:14:24;;;;;;;1.62;1.52;;;;;;;25.85;37.67;98743.66;1804201;78;28386;-41
2023/04/01 12:17:30;;;;;;;1.53;1.30;;;;;;;25.87;37.61;98735.95;1788815;79;28315;-44
2023/04/01 12:20:55;;;;;;;4.20;1.75;;;;;;;25.86;37.58;98723.28;1841006;76;28226;-43
2023/04/01 12:24:20;;;;;;;1.72;1.60;;;;;;;25.90;37.53;98718.91;1859763;76;28274;-41
2023/04/01 12:27:11;;;;;;;1.45;1.35;;;;;;;25.90;37.58;98706.52;1847712;76;28215;-43
2023/04/01 12:30:11;;;;;;;2.72;1.40;;;;;;;25.91;37.45;98700.45;1862824;76;28272;-43
2023/04/01 12:33:14;;;;;;;1.40;1.30;;;;;;;25.90;37.49;98696.89;1858052;76;28157;-41
2023/04/01 12:36:22;;;;;;;1.52;1.42;;;;;;;25.92;37.46;98691.11;1858192;76;36223;-42
2023/04/01 12:39:35;;;;;;;1.82;1.62;;;;;;;25.92;37.67;98689.73;1842793;76;28191;-41
2023/04/01 12:42:33;;;;;;;1.67;1.57;;;;;;;25.89;37.73;98685.59;1837402;76;28195;-42
2023/04/01 12:45:27;;;;;;;1.60;1.50;;;;;;;25.88;37.80;98675.68;1855457;76;28319;-44
2023/04/01 12:48:36;;;;;;;2.70;1.77;;;;;;;25.90;37.76;98663.88;1835433;77;28251;-42
2023/04/01 12:51:49;;;;;;;1.60;1.50;;;;;;;25.92;37.60;98671.30;1823298;77;28250;-42
2023/04/01 12:54:49;;;;;;;2.17;1.50;;;;;;;25.90;37.65;98665.25;1857967;76;28229;-43
2023/04/01 12:58:04;;;;;;;2.03;1.40;;;;;;;25.92;37.62;98650.66;1858091;76;28825;-42
2023/04/01 13:01:10;;;;;;;2.60;1.60;;;;;;;25.92;37.65;98642.41;1865273;76;28182;-42
2023/04/01 13:04:26;;;;;;;3.27;1.70;;;;;;;25.91;37.68;98632.48;1857219;76;28557;-42
2023/04/01 13:07:24;;;;;;;1.70;1.60;;;;;;;25.91;37.68;98634.41;1842208;76;28360;-41
2023/04/01 13:10:30;;;;;;;1.82;1.60;;;;;;;25.91;37.70;98629.73;1895726;74;28167;-43
2023/04/01 13:13:39;;;;;;;1.98;1.80;;;;;;;25.93;37.65;98626.69;1850389;77;28201;-43
2023/04/01 13:16:40;;;;;;;2.70;1.80;;;;;;;25.92;37.58;98616.27;1832782;76;28152;-41
2023/04/01 13:20:00;;;;;;;1.70;1.60;;;;;;;25.93;37.73;98604.68;1853440;76;28128;-42
2023/04/01 13:23:00;;;;;;;2.60;1.50;;;;;;;25.94;37.63;98598.92;1854115;76;28186;-42
2023/04/01 13:26:14;;;;;;;1.40;1.30;;;;;;;25.95;37.64;98595.62;1853936;76;28742;-42
2023/04/01 13:29:08;;;;;;;2.25;1.98;;;;;;;25.97;37.62;98585.98;1851380;76;28204;-43
2023/04/01 13:32:25;;;;;;;2.52;1.72;;;;;;;25.96;37.60;98580.20;1833190;76;28259;-44
2023/04/01 13:35:41;;;;;;;2.30;1.50;;;;;;;25.96;37.59;98569.19;1847611;76;28138;-43
2023/04/01 13:38:45;;;;;;;1.87;1.65;;;;;;;25.95;37.61;98556.52;1856896;76;28287;-41
2023/04/01 13:42:05;;;;;;;2.90;1.60;;;;;;;25.93;37.60;98549.64;1857850;76;28247;-42
2023/04/01 13:45:02;;;;;;;1.75;1.65;;;;;;;25.94;37.63;98551.30;1847793;76;28157;-42
2023/04/01 13:48:17;;;;;;;1.62;1.52;;;;;;;25.95;37.65;98545.52;1861549;76;28269;-42
2023/04/01 13:51:30;;;;;;;1.50;1.40;;;;;;;25.93;37.66;98537.27;1860302;74;28179;-42
2023/04/01 13:54:24;;;;;;;1.70;1.60;;;;;;;25.94;37.69;98537.00;1857948;76;28422;-42
2023/04/01 13:57:39;;;;;;;2.10;1.50;;;;;;;25.95;37.75;98537.84;1858505;76;28275;-42
2023/04/01 14:00:53;;;;;;;1.60;1.45;;;;;;;25.97;37.68;98542.50;1845909;76;28220;-42
2023/04/01 14:03:45;;;;;;;2.47;1.50;;;;;;;25.98;37.79;98535.88;1827880;77;32136;-41
2023/04/01 14:06:37;;;;;;;2.30;1.60;;;;;;;25.87;37.82;98520.51;1854412;76;28113;-41